Aviation Digital Data Service (ADDS)

Output produced by TAFs form (1848 UTC 17 October 2017)
found at http://www.aviationweather.gov/adds/tafs/
 
KANB 171753Z AUTO 08004KT 10SM CLR 19/07 A3029 RMK AO2 SLP256 T01890067 10194 20083 58016
KANB 171720Z 1718/1818 07010KT P6SM SKC 
     FM180000 00000KT P6SM SKC 
     FM181500 10007KT P6SM SKC